Freeport, Canada
Current Conditions -  °F | °C
As of 4:27 PM on Friday 19 Dec 2014 (Local Time) from CYQI Reporting Station
Snow Showers Snow Showers  
Wind Chill: 24°   Ceiling: 2000
Heat Index: 34°   Visibility: 4mi
Dew Point: 28°   Wind: 15mph
Humidity: 81%   Direction: 330°NNW
Pressure: 29.84"   Gusts: NA
Location:  44.28°N, 66.32°W
Report Text: CYQI 192027Z 33013KT 4SM -SHSN FEW012 BKN020 BKN250 01/M02 A2984 RMK CF1SC7CI1 CF TR CI TR SLP108
Loading
Personal Weather Stations






























Interactive Weather Map New forecast layout! Learn more

10-Day Weather Forecast

Advertisements
Track Severe Weather on mobile